Plan B — ZCND5 — position and weather

sailwx.info

Track history (hours):
 
Tides and Currents Weather Stations Pressure Air Temp Water Temp Dewpoint Dewpoint Depression Visibility Wind Speed Wind Dir Waves Ship Positions

Plan B

Last reported at 2016-Sep-25 11:33 UTC. Time now 2016-Sep-25 12:16 UTC.
Position N 37°44' W 025°40'.

Length 49 m; draft 3.2 m.

Type: Pleasure craft. MMSI: 319075000.

Date/timePositionNaut miles runAvg speedWind from/ knotsBaromVisibWave heightAir tempDewpointWater temp
2016-Sep-25 11:33N 37°44' W 025°40'0 0.0
2016-Sep-25 10:33N 37°44' W 025°40'0 0.0
2016-Sep-25 09:33N 37°44' W 025°40'0 0.0
2016-Sep-25 07:33N 37°44' W 025°40'0 0.0
2016-Sep-25 04:32N 37°44' W 025°40'0 0.0
2016-Sep-25 00:32N 37°44' W 025°40'0 0.0
2016-Sep-24 22:32N 37°44' W 025°40'0 0.0
2016-Sep-24 21:32N 37°44' W 025°40'0 0.0
2016-Sep-24 19:32N 37°44' W 025°40'0 0.0
2016-Sep-24 18:32N 37°44' W 025°40'0 0.0
2016-Sep-24 17:32N 37°44' W 025°40'0 0.0
2016-Sep-24 16:32N 37°44' W 025°40'0 0.0
2016-Sep-24 14:32N 37°44' W 025°40'0 0.0
2016-Sep-24 12:32N 37°44' W 025°40'0 0.0
2016-Sep-24 10:32N 37°44' W 025°40'0 0.0
2016-Sep-24 09:32N 37°44' W 025°40'0 0.0
2016-Sep-24 03:32N 37°44' W 025°40'0 0.0
2016-Sep-24 02:32N 37°44' W 025°40'0 0.0
2016-Sep-24 01:32N 37°44' W 025°40'0 0.0
2016-Sep-24 00:32N 37°44' W 025°40'0 0.0
2016-Sep-23 19:32N 37°44' W 025°40'0 0.0
2016-Sep-23 17:29N 37°44' W 025°40'0 0.0
2016-Sep-23 16:32N 37°44' W 025°40'0 0.0
2016-Sep-23 15:32N 37°44' W 025°40'0 0.0
2016-Sep-23 13:32N 37°44' W 025°40'0 0.0
2016-Sep-23 09:32N 37°44' W 025°40'0 0.0
2016-Sep-23 06:32N 37°44' W 025°40'0 0.0
2016-Sep-23 04:29N 37°44' W 025°40'0 0.0
2016-Sep-23 03:31N 37°44' W 025°40'0 0.0
2016-Sep-23 02:31N 37°44' W 025°40'0 0.0
2016-Sep-23 01:31N 37°44' W 025°40'0 0.0
2016-Sep-23 00:31N 37°44' W 025°40'0 0.0
2016-Sep-22 23:31N 37°44' W 025°40'0 0.0
2016-Sep-22 20:31N 37°44' W 025°40'0 0.0
2016-Sep-22 12:31N 37°44' W 025°40'0 0.0
2016-Sep-22 04:31N 37°44' W 025°40'0 0.0
2016-Sep-22 03:31N 37°44' W 025°40'0 0.0
2016-Sep-22 00:31N 37°44' W 025°40'0 0.0
2016-Sep-21 23:31N 37°44' W 025°40'0 0.0
2016-Sep-21 22:31N 37°44' W 025°40'0 0.0
2016-Sep-21 19:33N 37°44' W 025°40'0 0.0
2016-Sep-21 16:33N 37°44' W 025°40'0 0.0
2016-Sep-21 09:33N 37°44' W 025°40'0 0.0
2016-Sep-21 08:33N 37°44' W 025°40'0 0.0
2016-Sep-21 05:33N 37°44' W 025°40'0 0.0
2016-Sep-21 03:33N 37°44' W 025°40'0 0.0
2016-Sep-21 02:33N 37°44' W 025°40'0 0.0
2016-Sep-20 17:33N 37°44' W 025°40'0 0.0
2016-Sep-20 14:33N 37°44' W 025°40'0 0.0
2016-Sep-20 13:33N 37°44' W 025°40'0 0.0
2016-Sep-20 10:33N 37°44' W 025°40'0 0.0
2016-Sep-20 08:33N 37°44' W 025°40'0 0.0
2016-Sep-20 07:33N 37°44' W 025°40'0 0.0
2016-Sep-20 06:33N 37°44' W 025°40'0 0.0
2016-Sep-20 02:32N 37°44' W 025°40'0 0.0
2016-Sep-19 23:33N 37°44' W 025°40'0 0.0
2016-Sep-19 19:32N 37°44' W 025°40'0 0.0
2016-Sep-19 18:32N 37°44' W 025°40'0 0.0
2016-Sep-19 16:30N 37°44' W 025°40'0 0.0
2016-Sep-19 14:32N 37°44' W 025°40'0 0.0
2016-Sep-19 13:32N 37°44' W 025°40'0 0.0
2016-Sep-19 12:32N 37°44' W 025°40'0 0.0
2016-Sep-19 11:32N 37°44' W 025°40'0 0.0
2016-Sep-19 09:32N 37°44' W 025°40'0 0.0
2016-Sep-19 07:32N 37°44' W 025°40'0 0.0
2016-Sep-19 06:32N 37°44' W 025°40'0 0.0
2016-Sep-19 03:32N 37°44' W 025°40'0 0.0
2016-Sep-19 02:32N 37°44' W 025°40'0 0.0
2016-Sep-19 00:32N 37°44' W 025°40'11 2.3
2016-Sep-18 19:33N 37°50' W 025°52'19 4.6
2016-Sep-18 15:29N 37°50' W 025°29'2 0.1
2016-Sep-18 02:32N 37°51' W 025°27'1010.1
2016-Sep-18 01:33N 37°53' W 025°15'10 9.8
2016-Sep-18 00:33N 37°47' W 025°05'2211.0
2016-Sep-17 22:33N 37°27' W 024°54'1111.1
2016-Sep-17 21:33N 37°17' W 024°49'3 2.8
2016-Sep-17 20:28N 37°15' W 024°45'0 0.0
2016-Sep-17 19:16N 37°15' W 024°45'0 0.0
2016-Sep-17 13:31N 37°15' W 024°46'0 0.0
2016-Sep-17 12:31N 37°15' W 024°46'0 0.0
2016-Sep-17 10:31N 37°15' W 024°46'0 0.0
2016-Sep-17 09:31N 37°15' W 024°46'0 0.0
2016-Sep-17 08:31N 37°15' W 024°46'0 0.0
2016-Sep-17 07:31N 37°15' W 024°46'0 0.0
2016-Sep-17 05:31N 37°15' W 024°45'0 0.0
2016-Sep-17 04:31N 37°15' W 024°45'0 0.0
2016-Sep-17 00:31N 37°15' W 024°46'0 0.0
2016-Sep-16 17:31N 37°15' W 024°46'0 0.0
2016-Sep-16 15:31N 37°15' W 024°46'0 0.0
2016-Sep-16 12:33N 37°15' W 024°46'0 0.0
2016-Sep-16 09:33N 37°15' W 024°46'0 0.0
2016-Sep-16 07:30N 37°15' W 024°46'0 0.0
2016-Sep-16 03:33N 37°15' W 024°46'0 0.0
2016-Sep-16 02:33N 37°15' W 024°46'0 0.0
2016-Sep-16 00:33N 37°15' W 024°46'0 0.0
2016-Sep-15 22:33N 37°15' W 024°46'0 0.0
2016-Sep-15 21:33N 37°15' W 024°46'0 0.0
2016-Sep-15 20:33N 37°15' W 024°46'0 0.0
2016-Sep-15 18:33N 37°15' W 024°46'0 0.0
2016-Sep-15 12:33N 37°15' W 024°46'0 0.0
2016-Sep-15 11:33N 37°15' W 024°46'  
Track history (hours):
 
Tides and Currents Weather Stations Pressure Air Temp Water Temp Dewpoint Dewpoint Depression Visibility Wind Speed Wind Dir Waves Ship Positions

Plan B

Last reported at 2016-Sep-25 11:33 UTC. Time now 2016-Sep-25 12:16 UTC.
Position N 37°44' W 025°40'.

Length 49 m; draft 3.2 m.

Type: Pleasure craft. MMSI: 319075000.

Date/timePositionNaut miles runAvg speedWind from/ knotsBaromVisibWave heightAir tempDewpointWater temp
2016-Sep-25 11:33N 37°44' W 025°40'0 0.0
2016-Sep-25 10:33N 37°44' W 025°40'0 0.0
2016-Sep-25 09:33N 37°44' W 025°40'0 0.0
2016-Sep-25 07:33N 37°44' W 025°40'0 0.0
2016-Sep-25 04:32N 37°44' W 025°40'0 0.0
2016-Sep-25 00:32N 37°44' W 025°40'0 0.0
2016-Sep-24 22:32N 37°44' W 025°40'0 0.0
2016-Sep-24 21:32N 37°44' W 025°40'0 0.0
2016-Sep-24 19:32N 37°44' W 025°40'0 0.0
2016-Sep-24 18:32N 37°44' W 025°40'0 0.0
2016-Sep-24 17:32N 37°44' W 025°40'0 0.0
2016-Sep-24 16:32N 37°44' W 025°40'0 0.0
2016-Sep-24 14:32N 37°44' W 025°40'0 0.0
2016-Sep-24 12:32N 37°44' W 025°40'0 0.0
2016-Sep-24 10:32N 37°44' W 025°40'0 0.0
2016-Sep-24 09:32N 37°44' W 025°40'0 0.0
2016-Sep-24 03:32N 37°44' W 025°40'0 0.0
2016-Sep-24 02:32N 37°44' W 025°40'0 0.0
2016-Sep-24 01:32N 37°44' W 025°40'0 0.0
2016-Sep-24 00:32N 37°44' W 025°40'0 0.0
2016-Sep-23 19:32N 37°44' W 025°40'0 0.0
2016-Sep-23 17:29N 37°44' W 025°40'0 0.0
2016-Sep-23 16:32N 37°44' W 025°40'0 0.0
2016-Sep-23 15:32N 37°44' W 025°40'0 0.0
2016-Sep-23 13:32N 37°44' W 025°40'0 0.0
2016-Sep-23 09:32N 37°44' W 025°40'0 0.0
2016-Sep-23 06:32N 37°44' W 025°40'0 0.0
2016-Sep-23 04:29N 37°44' W 025°40'0 0.0
2016-Sep-23 03:31N 37°44' W 025°40'0 0.0
2016-Sep-23 02:31N 37°44' W 025°40'0 0.0
2016-Sep-23 01:31N 37°44' W 025°40'0 0.0
2016-Sep-23 00:31N 37°44' W 025°40'0 0.0
2016-Sep-22 23:31N 37°44' W 025°40'0 0.0
2016-Sep-22 20:31N 37°44' W 025°40'0 0.0
2016-Sep-22 12:31N 37°44' W 025°40'0 0.0
2016-Sep-22 04:31N 37°44' W 025°40'0 0.0
2016-Sep-22 03:31N 37°44' W 025°40'0 0.0
2016-Sep-22 00:31N 37°44' W 025°40'0 0.0
2016-Sep-21 23:31N 37°44' W 025°40'0 0.0
2016-Sep-21 22:31N 37°44' W 025°40'0 0.0
2016-Sep-21 19:33N 37°44' W 025°40'0 0.0
2016-Sep-21 16:33N 37°44' W 025°40'0 0.0
2016-Sep-21 09:33N 37°44' W 025°40'0 0.0
2016-Sep-21 08:33N 37°44' W 025°40'0 0.0
2016-Sep-21 05:33N 37°44' W 025°40'0 0.0
2016-Sep-21 03:33N 37°44' W 025°40'0 0.0
2016-Sep-21 02:33N 37°44' W 025°40'0 0.0
2016-Sep-20 17:33N 37°44' W 025°40'0 0.0
2016-Sep-20 14:33N 37°44' W 025°40'0 0.0
2016-Sep-20 13:33N 37°44' W 025°40'0 0.0
2016-Sep-20 10:33N 37°44' W 025°40'0 0.0
2016-Sep-20 08:33N 37°44' W 025°40'0 0.0
2016-Sep-20 07:33N 37°44' W 025°40'0 0.0
2016-Sep-20 06:33N 37°44' W 025°40'0 0.0
2016-Sep-20 02:32N 37°44' W 025°40'0 0.0
2016-Sep-19 23:33N 37°44' W 025°40'0 0.0
2016-Sep-19 19:32N 37°44' W 025°40'0 0.0
2016-Sep-19 18:32N 37°44' W 025°40'0 0.0
2016-Sep-19 16:30N 37°44' W 025°40'0 0.0
2016-Sep-19 14:32N 37°44' W 025°40'0 0.0
2016-Sep-19 13:32N 37°44' W 025°40'0 0.0
2016-Sep-19 12:32N 37°44' W 025°40'0 0.0
2016-Sep-19 11:32N 37°44' W 025°40'0 0.0
2016-Sep-19 09:32N 37°44' W 025°40'0 0.0
2016-Sep-19 07:32N 37°44' W 025°40'0 0.0
2016-Sep-19 06:32N 37°44' W 025°40'0 0.0
2016-Sep-19 03:32N 37°44' W 025°40'0 0.0
2016-Sep-19 02:32N 37°44' W 025°40'0 0.0
2016-Sep-19 00:32N 37°44' W 025°40'11 2.3
2016-Sep-18 19:33N 37°50' W 025°52'19 4.6
2016-Sep-18 15:29N 37°50' W 025°29'2 0.1
2016-Sep-18 02:32N 37°51' W 025°27'1010.1
2016-Sep-18 01:33N 37°53' W 025°15'10 9.8
2016-Sep-18 00:33N 37°47' W 025°05'2211.0
2016-Sep-17 22:33N 37°27' W 024°54'1111.1
2016-Sep-17 21:33N 37°17' W 024°49'3 2.8
2016-Sep-17 20:28N 37°15' W 024°45'0 0.0
2016-Sep-17 19:16N 37°15' W 024°45'0 0.0
2016-Sep-17 13:31N 37°15' W 024°46'0 0.0
2016-Sep-17 12:31N 37°15' W 024°46'0 0.0
2016-Sep-17 10:31N 37°15' W 024°46'0 0.0
2016-Sep-17 09:31N 37°15' W 024°46'0 0.0
2016-Sep-17 08:31N 37°15' W 024°46'0 0.0
2016-Sep-17 07:31N 37°15' W 024°46'0 0.0
2016-Sep-17 05:31N 37°15' W 024°45'0 0.0
2016-Sep-17 04:31N 37°15' W 024°45'0 0.0
2016-Sep-17 00:31N 37°15' W 024°46'0 0.0
2016-Sep-16 17:31N 37°15' W 024°46'0 0.0
2016-Sep-16 15:31N 37°15' W 024°46'0 0.0
2016-Sep-16 12:33N 37°15' W 024°46'0 0.0
2016-Sep-16 09:33N 37°15' W 024°46'0 0.0
2016-Sep-16 07:30N 37°15' W 024°46'0 0.0
2016-Sep-16 03:33N 37°15' W 024°46'0 0.0
2016-Sep-16 02:33N 37°15' W 024°46'0 0.0
2016-Sep-16 00:33N 37°15' W 024°46'0 0.0
2016-Sep-15 22:33N 37°15' W 024°46'0 0.0
2016-Sep-15 21:33N 37°15' W 024°46'0 0.0
2016-Sep-15 20:33N 37°15' W 024°46'0 0.0
2016-Sep-15 18:33N 37°15' W 024°46'0 0.0
2016-Sep-15 12:33N 37°15' W 024°46'0 0.0
2016-Sep-15 11:33N 37°15' W 024°46'  

Dump ship's entire track history